Latest Weather Observations for Westmere

IDV60801

Issued at 9:35 am EST Friday 22 August 2014 (issued every 30 minutes, with the page automatically refreshed every 10 minutes)

About weather observations | Map of weather stations | Latest weather observations for VIC | Other Formats
Station Details ID: 089112 Name: WESTMERE Lat: -37.71 Lon: 142.94 Height: 226.0 m
Data from the previous 72 hours. | See also: Recent months at Westmere
Date/Time
EST
Temp
°C
App
Temp
°C
Dew
Point
Rel
Hum
%
Delta-T
°C
Wind Press
QNH
hPa
Press
MSL
hPa
Rain
since 9 am
mm
Dir
 
Spd
km/h
Gust
km/h
Spd
kts
Gust
kts
22/09:30am 10.7 7.1 9.9 95 0.4 N 19 24 10 13 1030.0 1030.4 0.0
22/09:00am 9.7 8.0 9.7 100 0.0 N 9 13 5 7 1030.0 1030.4 0.0
22/08:30am 7.2 4.8 7.2 100 0.0 NE 9 13 5 7 1029.9 1030.3 0.0
22/08:00am 5.7 3.4 5.7 100 0.0 NE 7 9 4 5 1029.6 1030.0 0.0
22/07:30am 4.1 2.8 4.1 100 0.0 CALM 0 2 0 1 1029.4 1029.8 0.0
22/07:00am 3.6 1.1 3.6 100 0.0 ENE 6 7 3 4 1029.1 1029.5 0.0
22/06:30am 3.6 0.9 3.6 100 0.0 NNE 7 7 4 4 1028.9 1029.3 0.0
22/06:00am 5.0 1.8 5.0 100 0.0 N 11 13 6 7 1028.6 1029.0 0.0
22/05:30am 3.4 0.8 3.4 100 0.0 N 6 7 3 4 1028.6 1029.0 0.0
22/05:00am 1.8 -1.6 1.8 100 0.0 N 9 11 5 6 1028.5 1028.9 0.0
22/04:30am 2.0 -1.0 2.0 100 0.0 NE 7 9 4 5 1028.4 1028.8 0.0
22/04:00am 1.1 -2.0 1.1 100 0.0 N 7 9 4 5 1028.3 1028.7 0.0
22/03:30am 1.3 -1.8 1.3 100 0.0 N 7 9 4 5 1028.3 1028.7 0.0
22/03:00am 1.1 -2.4 1.1 100 0.0 NNE 9 11 5 6 1028.4 1028.8 0.0
22/02:30am 0.6 -2.6 0.6 100 0.0 NNE 7 9 4 5 1028.5 1028.9 0.0
22/02:00am 1.0 -2.2 1.0 100 0.0 NNE 7 9 4 5 1028.6 1029.0 0.0
22/01:30am 0.9 -0.9 0.9 100 0.0 CALM 0 0 0 0 1028.7 1029.1 0.0
22/01:00am 1.2 -1.7 1.2 100 0.0 NNE 6 7 3 4 1028.5 1028.9 0.0
22/12:30am 0.9 -2.1 0.8 99 0.0 N 6 6 3 3 1028.5 1028.9 0.0
22/12:00am 2.0 -0.4 2.0 100 0.0 NNE 4 6 2 3 1028.4 1028.8 0.0
 
Date/Time
EST
Temp
°C
App
Temp
°C
Dew
Point
Rel
Hum
%
Delta-T
°C
Wind Press
QNH
hPa
Press
MSL
hPa
Rain
since 9 am
mm
Dir
 
Spd
km/h
Gust
km/h
Spd
kts
Gust
kts
21/11:30pm 1.7 -1.4 1.6 99 0.0 N 7 7 4 4 1028.5 1028.9 0.0
21/11:00pm 2.2 -1.2 2.1 99 0.0 N 9 9 5 5 1028.5 1028.9 0.0
21/10:30pm 2.8 -0.1 2.7 99 0.0 NNE 7 9 4 5 1028.5 1028.9 0.0
21/10:00pm 2.7 -0.6 2.6 99 0.0 NNE 9 11 5 6 1028.6 1029.0 0.0
21/09:30pm 4.3 2.3 4.2 99 0.0 NNW 4 6 2 3 1028.4 1028.8 0.0
21/09:00pm 3.8 1.7 3.7 99 0.0 NNW 4 4 2 2 1028.3 1028.7 0.0
21/08:30pm 5.5 3.6 4.9 96 0.3 NNW 4 4 2 2 1028.3 1028.7 0.0
21/08:00pm 6.2 4.5 5.9 98 0.1 NNW 4 6 2 3 1028.0 1028.3 0.0
21/07:30pm 5.7 3.9 5.4 98 0.1 NNW 4 6 2 3 1028.1 1028.5 0.0
21/07:00pm 5.9 4.1 5.2 95 0.3 NNW 4 4 2 2 1027.9 1028.2 0.0
21/06:30pm 6.9 5.3 4.6 85 1.0 NNW 2 2 1 1 1027.5 1027.8 0.0
21/06:00pm 9.8 7.7 5.6 75 1.9 NNW 6 6 3 3 1027.3 1027.6 0.0
21/05:30pm 10.4 8.5 6.5 77 1.8 N 6 9 3 5 1027.0 1027.3 0.0
21/05:00pm 12.0 10.0 7.1 72 2.4 N 7 11 4 6 1026.7 1027.0 0.0
21/04:30pm 12.8 10.0 6.8 67 2.9 N 11 17 6 9 1026.4 1026.7 0.0
21/04:00pm 12.8 10.0 7.0 68 2.8 N 11 15 6 8 1026.2 1026.6 0.0
21/03:30pm 12.7 11.2 8.4 75 2.2 N 6 9 3 5 1026.2 1026.6 0.0
21/03:00pm 11.7 9.8 7.6 76 2.0 N 7 11 4 6 1026.4 1026.7 0.0
21/02:30pm 12.4 10.5 6.9 69 2.7 N 6 9 3 5 1026.4 1026.7 0.0
21/02:00pm 12.2 9.4 7.1 71 2.5 N 11 19 6 10 1026.5 1026.8 0.0
21/01:30pm 12.4 10.3 8.1 75 2.1 NNW 9 15 5 8 1026.8 1027.1 0.0
21/01:00pm 12.8 10.3 8.3 74 2.2 N 11 19 6 10 1027.1 1027.4 0.0
21/12:30pm 12.6 10.0 7.9 73 2.3 N 11 19 6 10 1027.5 1027.8 0.0
21/12:00pm 12.2 8.7 7.3 72 2.4 NNW 15 22 8 12 1027.7 1028.0 0.0
21/11:30am 12.1 10.6 8.6 79 1.8 N 6 9 3 5 1028.1 1028.5 0.0
21/11:00am 10.7 8.9 7.9 83 1.4 NNE 7 11 4 6 1028.3 1028.7 0.0
21/10:30am 8.2 6.6 8.2 100 0.0 ENE 6 9 3 5 1028.6 1029.0 0.0
21/10:00am 6.6 5.1 6.6 100 0.0 E 4 6 2 3 1028.7 1029.1 0.0
21/09:30am 5.1 3.2 5.1 100 0.0 ENE 4 7 2 4 1028.8 1029.2 0.0
21/09:00am 4.0 1.9 4.0 100 0.0 E 4 7 2 4 1028.9 1029.3 0.0
21/08:30am 2.5 0.9 2.5 100 0.0 CALM 0 0 0 0 1028.7 1029.1 0.0
21/08:00am 1.1 -1.9 1.1 100 0.0 N 6 7 3 4 1028.6 1029.0 0.0
21/07:30am 0.6 -2.1 0.6 100 0.0 N 4 6 2 3 1028.3 1028.7 0.0
21/07:00am -0.5 -2.6 -0.5 100 0.0 CALM 0 0 0 0 1028.1 1028.5 0.0
21/06:30am 0.0 -2.0 0.0 100 0.0 CALM 0 0 0 0 1027.7 1028.0 0.0
21/06:00am 0.4 -2.9 0.4 100 0.0 NNE 7 9 4 5 1027.6 1027.9 0.0
21/05:30am 1.3 -2.2 1.3 100 0.0 NNE 9 9 5 5 1027.5 1027.8 0.0
21/05:00am 3.0 1.1 3.0 100 0.0 SSW 2 4 1 2 1027.6 1027.9 0.0
21/04:30am 3.7 1.6 3.7 100 0.0 SSW 4 4 2 2 1027.6 1027.9 0.0
21/04:00am 4.8 2.9 4.8 100 0.0 SSW 4 4 2 2 1027.6 1027.9 0.0
21/03:30am 5.0 3.1 5.0 100 0.0 SSW 4 6 2 3 1027.6 1027.9 0.0
21/03:00am 4.8 3.6 4.8 100 0.0 CALM 0 0 0 0 1027.6 1027.9 0.0
21/02:30am 4.6 3.4 4.6 100 0.0 CALM 0 0 0 0 1027.7 1028.0 0.0
21/02:00am 4.2 2.9 4.2 100 0.0 CALM 0 0 0 0 1027.9 1028.2 0.0
21/01:30am 2.8 0.9 2.7 99 0.0 SE 2 4 1 2 1027.8 1028.1 0.0
21/01:00am 3.4 1.2 3.3 99 0.0 SE 4 4 2 2 1027.8 1028.1 0.0
21/12:30am 3.9 1.4 3.8 99 0.0 SE 6 7 3 4 1027.8 1028.1 0.0
21/12:00am 5.3 2.9 5.2 99 0.0 SE 7 7 4 4 1027.7 1028.0 0.0
 
Date/Time
EST
Temp
°C
App
Temp
°C
Dew
Point
Rel
Hum
%
Delta-T
°C
Wind Press
QNH
hPa
Press
MSL
hPa
Rain
since 9 am
mm
Dir
 
Spd
km/h
Gust
km/h
Spd
kts
Gust
kts
20/11:30pm 6.3 4.3 6.2 99 0.0 E 6 7 3 4 1027.8 1028.1 0.0
20/11:00pm 5.8 3.7 5.7 99 0.0 ESE 6 7 3 4 1027.9 1028.2 0.0
20/10:30pm 7.8 5.6 7.7 99 0.0 ESE 9 11 5 6 1028.0 1028.3 0.0
20/10:00pm 8.2 6.1 8.2 100 0.0 SSE 9 11 5 6 1028.0 1028.3 0.0
20/09:30pm 8.4 6.3 8.4 100 0.0 S 9 13 5 7 1028.0 1028.3 0.0
20/09:00pm 8.6 6.2 8.5 99 0.0 S 11 17 6 9 1028.0 1028.3 0.0
20/08:30pm 8.6 6.1 8.3 98 0.1 S 11 17 6 9 1027.9 1028.2 0.0
20/08:00pm 8.3 6.5 8.0 98 0.1 S 7 9 4 5 1027.9 1028.2 0.0
20/07:30pm 8.4 6.7 7.5 94 0.4 SSW 6 9 3 5 1027.7 1028.0 0.0
20/07:00pm 8.7 8.1 7.5 92 0.6 CALM 0 4 0 2 1027.7 1028.0 0.0
20/06:30pm 8.7 6.9 7.8 94 0.4 S 7 7 4 4 1027.7 1028.0 0.0
20/06:00pm 9.0 7.1 7.5 90 0.7 S 7 7 4 4 1027.5 1027.8 0.0
20/05:30pm 9.4 7.7 7.5 88 0.9 S 6 7 3 4 1027.2 1027.5 0.0
20/05:00pm 9.6 7.2 7.2 85 1.1 S 9 13 5 7 1027.1 1027.4 0.0
20/04:30pm 10.2 7.8 5.4 72 2.2 ESE 7 9 4 5 1026.9 1027.2 0.0
20/04:00pm 10.5 7.4 5.7 72 2.2 SE 11 15 6 8 1026.8 1027.1 0.0
20/03:30pm 10.5 7.7 5.3 70 2.4 ESE 9 15 5 8 1026.8 1027.1 0.0
20/03:00pm 10.6 8.0 6.0 73 2.1 SSE 9 15 5 8 1026.7 1027.0 0.0
20/02:30pm 10.2 7.2 6.0 75 2.0 S 11 17 6 9 1026.6 1026.9 0.0
20/02:00pm 10.4 7.7 5.8 73 2.1 S 9 15 5 8 1026.5 1026.8 0.0
20/01:30pm 10.2 6.7 5.6 73 2.1 S 13 17 7 9 1026.7 1027.0 0.0
20/01:00pm 10.1 6.8 6.4 78 1.7 S 13 19 7 10 1026.9 1027.2 0.0
20/12:30pm 10.0 6.5 5.6 74 2.0 SSE 13 19 7 10 1027.2 1027.5 0.0
20/12:00pm 10.2 6.5 6.2 76 1.9 SSE 15 22 8 12 1027.5 1027.8 0.0
20/11:30am 10.0 6.3 6.2 77 1.8 SSE 15 20 8 11 1027.6 1027.9 0.0
20/11:00am 10.0 7.4 7.6 85 1.2 SE 11 15 6 8 1027.7 1028.0 0.0
20/10:30am 9.0 6.4 7.6 91 0.7 SE 11 15 6 8 1027.7 1028.0 0.0
20/10:00am 9.1 6.4 7.4 89 0.8 S 11 15 6 8 1027.6 1027.9 0.0
20/09:30am 8.3 4.7 8.2 99 0.0 S 17 20 9 11 1027.6 1027.9 0.0
20/09:00am 8.1 5.6 8.0 99 0.0 SSE 11 15 6 8 1027.4 1027.7 0.0
20/08:30am 7.4 5.5 7.4 100 0.0 S 7 11 4 6 1027.2 1027.5 0.0
20/08:00am 6.9 4.5 6.9 100 0.0 S 9 13 5 7 1026.9 1027.2 0.0
20/07:30am 6.5 4.9 6.5 100 0.0 SW 4 9 2 5 1026.7 1027.0 0.0
20/07:00am 6.5 5.3 6.5 100 0.0 S 2 4 1 2 1026.2 1026.6 0.0
20/06:30am 6.5 4.6 6.5 100 0.0 SSE 6 7 3 4 1026.1 1026.5 0.0
20/06:00am 6.7 4.6 6.7 100 0.0 SSW 7 11 4 6 1025.9 1026.3 0.0
20/05:30am 6.9 4.5 6.9 100 0.0 S 9 13 5 7 1025.9 1026.3 0.0
20/05:00am 6.8 4.4 6.8 100 0.0 S 9 11 5 6 1025.9 1026.3 0.0
20/04:30am 6.8 4.7 6.7 99 0.0 S 7 11 4 6 1025.8 1026.2 0.0
20/04:00am 6.8 4.5 5.7 93 0.5 S 7 9 4 5 1025.7 1026.1 0.0
20/03:30am 6.9 4.5 5.2 89 0.8 S 7 11 4 6 1025.6 1026.0 0.0
20/03:00am 7.0 4.2 5.0 87 0.9 SE 9 11 5 6 1025.7 1026.1 0.0
20/02:30am 7.2 4.3 4.9 85 1.0 SSE 9 11 5 6 1025.8 1026.2 0.0
20/02:00am 6.9 4.0 4.9 87 0.9 SSE 9 11 5 6 1026.0 1026.4 0.0
20/01:30am 7.0 4.5 4.8 86 1.0 SSE 7 9 4 5 1026.0 1026.4 0.0
20/01:00am 6.8 4.0 5.3 90 0.7 S 9 11 5 6 1026.1 1026.5 0.0
20/12:30am 6.6 3.9 5.6 93 0.5 S 9 9 5 5 1026.1 1026.5 0.0
20/12:00am 6.6 4.2 5.4 92 0.5 S 7 7 4 4 1026.1 1026.5 0.0
 
Date/Time
EST
Temp
°C
App
Temp
°C
Dew
Point
Rel
Hum
%
Delta-T
°C
Wind Press
QNH
hPa
Press
MSL
hPa
Rain
since 9 am
mm
Dir
 
Spd
km/h
Gust
km/h
Spd
kts
Gust
kts
19/11:30pm 6.9 4.1 5.2 89 0.8 S 9 11 5 6 1026.1 1026.5 0.0
19/11:00pm 7.1 4.2 4.9 86 1.0 SSE 9 13 5 7 1026.1 1026.5 0.0
19/10:30pm 7.2 4.0 5.2 87 0.9 S 11 13 6 7 1026.2 1026.6 0.0
19/10:00pm 7.3 4.6 5.6 89 0.8 S 9 15 5 8 1026.4 1026.7 0.0
19/09:30pm 7.3 4.3 6.1 92 0.5 S 11 15 6 8 1026.4 1026.7 0.0
19/09:00pm 7.6 4.6 6.2 91 0.6 S 11 15 6 8 1026.2 1026.6 0.0
19/08:30pm 7.8 4.5 6.3 90 0.7 S 13 17 7 9 1026.0 1026.4 0.0
19/08:00pm 8.1 4.8 6.4 89 0.8 S 13 17 7 9 1025.9 1026.3 0.0
19/07:30pm 8.2 4.5 6.3 88 0.9 S 15 19 8 10 1025.8 1026.2 0.0
19/07:00pm 8.3 5.4 6.6 89 0.8 S 11 15 6 8 1025.6 1026.0 0.0
19/06:30pm 8.6 5.4 6.9 89 0.8 S 13 17 7 9 1025.2 1025.6 0.0
19/06:00pm 8.8 6.0 6.9 88 0.9 S 11 17 6 9 1024.9 1025.3 0.0
19/05:30pm 9.0 5.8 6.8 86 1.0 S 13 19 7 10 1024.7 1025.1 0.0
19/05:00pm 9.4 6.2 7.0 85 1.1 S 13 22 7 12 1024.5 1024.9 0.0
19/04:30pm 9.6 5.7 7.0 84 1.2 S 17 22 9 12 1024.5 1024.9 0.0
19/04:00pm 10.0 6.6 5.8 75 1.9 S 13 20 7 11 1024.4 1024.8 0.0
19/03:30pm 10.2 6.6 5.2 71 2.3 S 13 19 7 10 1024.4 1024.8 0.0
19/03:00pm 10.3 7.3 5.9 74 2.0 S 11 15 6 8 1024.3 1024.6 0.0
19/02:30pm 10.3 6.3 4.9 69 2.5 SSW 15 20 8 11 1024.2 1024.5 0.0
19/02:00pm 10.3 6.6 6.1 75 2.0 S 15 19 8 10 1024.3 1024.6 0.0
19/01:30pm 10.2 6.5 6.4 77 1.8 SSW 15 20 8 11 1024.3 1024.6 0.0
19/01:00pm 10.6 6.8 6.0 73 2.1 SSE 15 20 8 11 1024.5 1024.9 0.0
19/12:30pm 10.3 7.0 6.3 76 1.9 S 13 22 7 12 1024.9 1025.3 0.0
19/12:00pm 10.4 6.3 6.0 74 2.1 S 17 22 9 12 1025.3 1025.7 0.0
19/11:30am 10.0 6.5 7.1 82 1.4 S 15 19 8 10 1025.5 1025.9 0.0
19/11:00am 9.8 6.3 7.2 84 1.2 SSE 15 19 8 10 1025.6 1026.0 0.0
19/10:30am 9.6 6.6 7.5 87 1.0 SSE 13 17 7 9 1025.5 1025.9 0.0
19/10:00am 9.3 5.8 7.3 87 1.0 SSE 15 20 8 11 1025.5 1025.9 0.0

Other Formats:

Comma delimited format used in spreadsheet applications
http://www.bom.gov.au/fwo/IDV60801/IDV60801.95840.axf

JavaScript Object Notation format (JSON) in row-major order
http://www.bom.gov.au/fwo/IDV60801/IDV60801.95840.json